Terminal Aerodrome Forecast
Issued by NWS

Current Version | Previous Version | Graphics & Text | Print | Product List | Glossary On
Versions: 1 2 3 4 5 6 7 8 9 10 11 12 13 14 15 16 17 18 19
000
FTUS41 KPBZ 051729
TAFHLG
TAF
KHLG 051729Z 0518/0618 09005KT P6SM FEW040 BKN250
      TEMPO 0608/0612 4SM BR
     FM061200 13005KT P6SM VCSH BKN050=

USA.gov is the U.S. government's official web portal to all federal, state and local government web resources and services.